Terminal Aerodrome Forecast
Issued by NWS Grand Forks, ND

Home | Current Version | Previous Version | Graphics & Text | Print | Product List | Glossary On
Versions: 1 2 3 4 5 6 7 8 9 10 11 12 13 14 15 16
000
FTUS43 KFGF 281040 AAA
TAFGFK
TAF AMD
KGFK 281040Z 2811/2906 14010KT P6SM BKN250
      TEMPO 2811/2812 15020G30KT 3SM -TSRA BKN020CB
     FM281500 20015KT P6SM BKN050
     FM282100 22020G30KT P6SM SCT050=

USA.gov is the U.S. government's official web portal to all federal, state and local government web resources and services.